sensor_id;sensor_type;location;lat;lon;timestamp;pressure;altitude;pressure_sealevel;temperature;humidity
45255;BME280;30989;52.078;21.014;2023-11-21T00:02:13;163560.69;;;-0.72;100.00
45255;BME280;30989;52.078;21.014;2023-11-21T00:04:38;163579.28;;;-0.65;100.00
45255;BME280;30989;52.078;21.014;2023-11-21T00:07:04;163576.63;;;-0.66;100.00
45255;BME280;30989;52.078;21.014;2023-11-21T00:09:32;163534.13;;;-0.82;100.00
45255;BME280;30989;52.078;21.014;2023-11-21T00:11:57;163548.72;;;-0.77;100.00
45255;BME280;30989;52.078;21.014;2023-11-21T00:14:25;163555.38;;;-0.74;100.00
45255;BME280;30989;52.078;21.014;2023-11-21T00:16:50;163575.31;;;-0.67;100.00
45255;BME280;30989;52.078;21.014;2023-11-21T00:19:16;163564.69;;;-0.71;100.00
45255;BME280;30989;52.078;21.014;2023-11-21T00:21:42;163575.31;;;-0.67;100.00
45255;BME280;30989;52.078;21.014;2023-11-21T00:24:11;163591.25;;;-0.60;100.00
45255;BME280;30989;52.078;21.014;2023-11-21T00:26:41;163597.91;;;-0.58;100.00
45255;BME280;30989;52.078;21.014;2023-11-21T00:29:07;163600.56;;;-0.57;100.00
45255;BME280;30989;52.078;21.014;2023-11-21T00:31:34;163584.63;;;-0.63;100.00
45255;BME280;30989;52.078;21.014;2023-11-21T00:34:02;163588.59;;;-0.61;100.00
45255;BME280;30989;52.078;21.014;2023-11-21T00:36:29;163581.97;;;-0.64;100.00
45255;BME280;30989;52.078;21.014;2023-11-21T00:38:54;163584.63;;;-0.63;100.00
45255;BME280;30989;52.078;21.014;2023-11-21T00:41:21;163579.28;;;-0.65;100.00
45255;BME280;30989;52.078;21.014;2023-11-21T00:43:46;163587.28;;;-0.62;100.00
45255;BME280;30989;52.078;21.014;2023-11-21T00:46:12;163562.03;;;-0.72;100.00
45255;BME280;30989;52.078;21.014;2023-11-21T00:48:37;163547.41;;;-0.77;100.00
45255;BME280;30989;52.078;21.014;2023-11-21T00:51:03;163539.44;;;-0.80;100.00
45255;BME280;30989;52.078;21.014;2023-11-21T00:53:29;163547.41;;;-0.77;100.00
45255;BME280;30989;52.078;21.014;2023-11-21T00:55:54;163563.34;;;-0.71;100.00
45255;BME280;30989;52.078;21.014;2023-11-21T00:58:23;163563.34;;;-0.71;100.00
45255;BME280;30989;52.078;21.014;2023-11-21T01:00:49;163575.31;;;-0.67;100.00
45255;BME280;30989;52.078;21.014;2023-11-21T01:03:14;163576.63;;;-0.66;100.00
45255;BME280;30989;52.078;21.014;2023-11-21T01:05:40;163573.97;;;-0.67;100.00
45255;BME280;30989;52.078;21.014;2023-11-21T01:08:05;163585.94;;;-0.62;100.00
45255;BME280;30989;52.078;21.014;2023-11-21T01:10:31;163592.59;;;-0.60;100.00
45255;BME280;30989;52.078;21.014;2023-11-21T01:12:56;163595.25;;;-0.59;100.00
45255;BME280;30989;52.078;21.014;2023-11-21T01:15:23;163597.91;;;-0.58;100.00
45255;BME280;30989;52.078;21.014;2023-11-21T01:17:51;163588.59;;;-0.61;100.00
45255;BME280;30989;52.078;21.014;2023-11-21T01:20:17;163601.88;;;-0.56;100.00
45255;BME280;30989;52.078;21.014;2023-11-21T01:22:43;163577.97;;;-0.66;100.00
45255;BME280;30989;52.078;21.014;2023-11-21T01:25:09;163568.66;;;-0.69;100.00
45255;BME280;30989;52.078;21.014;2023-11-21T01:27:36;163544.75;;;-0.78;100.00
45255;BME280;30989;52.078;21.014;2023-11-21T01:30:03;163531.47;;;-0.83;100.00
45255;BME280;30989;52.078;21.014;2023-11-21T01:32:29;163518.16;;;-0.88;100.00
45255;BME280;30989;52.078;21.014;2023-11-21T01:34:55;163520.81;;;-0.87;100.00
45255;BME280;30989;52.078;21.014;2023-11-21T01:37:21;163523.47;;;-0.86;100.00
45255;BME280;30989;52.078;21.014;2023-11-21T01:39:47;163528.78;;;-0.84;100.00
45255;BME280;30989;52.078;21.014;2023-11-21T01:42:14;163520.81;;;-0.87;100.00
45255;BME280;30989;52.078;21.014;2023-11-21T01:44:40;163520.81;;;-0.87;100.00
45255;BME280;30989;52.078;21.014;2023-11-21T01:47:06;163524.81;;;-0.86;100.00
45255;BME280;30989;52.078;21.014;2023-11-21T01:49:36;163528.78;;;-0.84;100.00
45255;BME280;30989;52.078;21.014;2023-11-21T01:52:03;163531.47;;;-0.83;100.00
45255;BME280;30989;52.078;21.014;2023-11-21T01:54:29;163530.13;;;-0.84;100.00
45255;BME280;30989;52.078;21.014;2023-11-21T01:57:00;163522.16;;;-0.87;100.00
45255;BME280;30989;52.078;21.014;2023-11-21T01:59:34;163499.56;;;-0.95;100.00
45255;BME280;30989;52.078;21.014;2023-11-21T02:02:06;163503.56;;;-0.94;100.00
45255;BME280;30989;52.078;21.014;2023-11-21T02:04:33;163490.28;;;-0.99;100.00
45255;BME280;30989;52.078;21.014;2023-11-21T02:06:59;163488.94;;;-1.00;100.00
45255;BME280;30989;52.078;21.014;2023-11-21T02:09:28;163499.56;;;-0.95;100.00
45255;BME280;30989;52.078;21.014;2023-11-21T02:11:55;163459.72;;;-1.11;100.00
45255;BME280;30989;52.078;21.014;2023-11-21T02:14:22;163459.72;;;-1.11;100.00
45255;BME280;30989;52.078;21.014;2023-11-21T02:16:51;163446.41;;;-1.16;100.00
45255;BME280;30989;52.078;21.014;2023-11-21T02:19:21;163441.09;;;-1.18;100.00
45255;BME280;30989;52.078;21.014;2023-11-21T02:21:52;163451.75;;;-1.14;100.00
45255;BME280;30989;52.078;21.014;2023-11-21T02:24:22;163446.41;;;-1.16;100.00
45255;BME280;30989;52.078;21.014;2023-11-21T02:26:48;163429.16;;;-1.22;100.00
45255;BME280;30989;52.078;21.014;2023-11-21T02:29:17;163437.13;;;-1.19;100.00
45255;BME280;30989;52.078;21.014;2023-11-21T02:31:45;163418.53;;;-1.26;100.00
45255;BME280;30989;52.078;21.014;2023-11-21T02:34:17;163382.66;;;-1.40;100.00
45255;BME280;30989;52.078;21.014;2023-11-21T02:36:43;163421.19;;;-1.25;100.00
45255;BME280;30989;52.078;21.014;2023-11-21T02:39:11;163395.94;;;-1.35;100.00
45255;BME280;30989;52.078;21.014;2023-11-21T02:41:37;163409.22;;;-1.30;100.00
45255;BME280;30989;52.078;21.014;2023-11-21T02:44:03;163409.22;;;-1.30;100.00
45255;BME280;30989;52.078;21.014;2023-11-21T02:46:32;163410.56;;;-1.30;100.00
45255;BME280;30989;52.078;21.014;2023-11-21T02:49:03;163413.22;;;-1.28;100.00
45255;BME280;30989;52.078;21.014;2023-11-21T02:51:30;163407.91;;;-1.31;100.00
45255;BME280;30989;52.078;21.014;2023-11-21T02:53:56;163382.66;;;-1.40;100.00
45255;BME280;30989;52.078;21.014;2023-11-21T02:56:27;163398.59;;;-1.34;100.00
45255;BME280;30989;52.078;21.014;2023-11-21T02:58:55;163377.34;;;-1.42;100.00
45255;BME280;30989;52.078;21.014;2023-11-21T03:01:21;163395.94;;;-1.35;100.00
45255;BME280;30989;52.078;21.014;2023-11-21T03:03:46;163382.66;;;-1.40;100.00
45255;BME280;30989;52.078;21.014;2023-11-21T03:06:15;163391.97;;;-1.37;100.00
45255;BME280;30989;52.078;21.014;2023-11-21T03:08:41;163417.19;;;-1.27;100.00
45255;BME280;30989;52.078;21.014;2023-11-21T03:11:07;163406.56;;;-1.31;100.00
45255;BME280;30989;52.078;21.014;2023-11-21T03:13:33;163398.59;;;-1.34;100.00
45255;BME280;30989;52.078;21.014;2023-11-21T03:15:59;163401.25;;;-1.33;100.00
45255;BME280;30989;52.078;21.014;2023-11-21T03:18:24;163376.03;;;-1.43;100.00
45255;BME280;30989;52.078;21.014;2023-11-21T03:20:53;163401.25;;;-1.33;100.00
45255;BME280;30989;52.078;21.014;2023-11-21T03:23:18;163389.31;;;-1.38;100.00
45255;BME280;30989;52.078;21.014;2023-11-21T03:25:44;163381.34;;;-1.41;100.00
45255;BME280;30989;52.078;21.014;2023-11-21T03:28:10;163369.38;;;-1.45;100.00
45255;BME280;30989;52.078;21.014;2023-11-21T03:30:35;163370.72;;;-1.45;100.00
45255;BME280;30989;52.078;21.014;2023-11-21T03:33:01;163357.44;;;-1.50;100.00
45255;BME280;30989;52.078;21.014;2023-11-21T03:35:26;163361.41;;;-1.48;100.00
45255;BME280;30989;52.078;21.014;2023-11-21T03:37:53;163361.41;;;-1.48;100.00
45255;BME280;30989;52.078;21.014;2023-11-21T03:40:19;163362.75;;;-1.48;100.00
45255;BME280;30989;52.078;21.014;2023-11-21T03:42:46;163374.69;;;-1.43;100.00
45255;BME280;30989;52.078;21.014;2023-11-21T03:45:12;163380.00;;;-1.41;100.00
45255;BME280;30989;52.078;21.014;2023-11-21T03:47:41;163386.66;;;-1.39;100.00
45255;BME280;30989;52.078;21.014;2023-11-21T03:50:07;163395.94;;;-1.35;100.00
45255;BME280;30989;52.078;21.014;2023-11-21T03:52:34;163395.94;;;-1.35;100.00
45255;BME280;30989;52.078;21.014;2023-11-21T03:55:01;163398.59;;;-1.34;100.00
45255;BME280;30989;52.078;21.014;2023-11-21T03:57:30;163390.63;;;-1.37;100.00
45255;BME280;30989;52.078;21.014;2023-11-21T03:59:56;163385.31;;;-1.39;100.00
45255;BME280;30989;52.078;21.014;2023-11-21T04:02:22;163384.00;;;-1.40;100.00
45255;BME280;30989;52.078;21.014;2023-11-21T04:04:47;163364.06;;;-1.47;100.00
45255;BME280;30989;52.078;21.014;2023-11-21T04:07:13;163377.34;;;-1.42;100.00
45255;BME280;30989;52.078;21.014;2023-11-21T04:09:39;163373.38;;;-1.44;100.00
45255;BME280;30989;52.078;21.014;2023-11-21T04:12:05;163373.38;;;-1.44;100.00
45255;BME280;30989;52.078;21.014;2023-11-21T04:14:31;163364.06;;;-1.47;100.00
45255;BME280;30989;52.078;21.014;2023-11-21T04:16:56;163340.16;;;-1.56;100.00
45255;BME280;30989;52.078;21.014;2023-11-21T04:19:22;163350.78;;;-1.52;100.00
45255;BME280;30989;52.078;21.014;2023-11-21T04:21:47;163337.50;;;-1.57;100.00
45255;BME280;30989;52.078;21.014;2023-11-21T04:24:13;163350.78;;;-1.52;100.00
45255;BME280;30989;52.078;21.014;2023-11-21T04:26:38;163350.78;;;-1.52;100.00
45255;BME280;30989;52.078;21.014;2023-11-21T04:29:04;163353.44;;;-1.51;100.00
45255;BME280;30989;52.078;21.014;2023-11-21T04:31:30;163361.41;;;-1.48;100.00
45255;BME280;30989;52.078;21.014;2023-11-21T04:33:56;163350.78;;;-1.52;100.00
45255;BME280;30989;52.078;21.014;2023-11-21T04:36:21;163345.47;;;-1.54;100.00
45255;BME280;30989;52.078;21.014;2023-11-21T04:38:46;163308.28;;;-1.69;100.00
45255;BME280;30989;52.078;21.014;2023-11-21T04:41:12;163324.22;;;-1.63;100.00
45255;BME280;30989;52.078;21.014;2023-11-21T04:43:38;163316.25;;;-1.66;100.00
45255;BME280;30989;52.078;21.014;2023-11-21T04:46:03;163301.66;;;-1.71;100.00
45255;BME280;30989;52.078;21.014;2023-11-21T04:48:29;163301.66;;;-1.71;100.00
45255;BME280;30989;52.078;21.014;2023-11-21T04:50:54;163295.00;;;-1.74;100.00
45255;BME280;30989;52.078;21.014;2023-11-21T04:53:20;163305.63;;;-1.70;100.00
45255;BME280;30989;52.078;21.014;2023-11-21T04:55:45;163310.94;;;-1.68;100.00
45255;BME280;30989;52.078;21.014;2023-11-21T04:58:12;163297.66;;;-1.73;100.00
45255;BME280;30989;52.078;21.014;2023-11-21T05:00:37;163291.03;;;-1.75;100.00
45255;BME280;30989;52.078;21.014;2023-11-21T05:03:03;163292.34;;;-1.75;100.00
45255;BME280;30989;52.078;21.014;2023-11-21T05:05:30;163273.75;;;-1.82;100.00
45255;BME280;30989;52.078;21.014;2023-11-21T05:07:56;163287.03;;;-1.77;100.00
45255;BME280;30989;52.078;21.014;2023-11-21T05:10:21;163289.69;;;-1.76;100.00
45255;BME280;30989;52.078;21.014;2023-11-21T05:12:50;163285.72;;;-1.77;100.00
45255;BME280;30989;52.078;21.014;2023-11-21T05:15:16;163297.66;;;-1.73;100.00
45255;BME280;30989;52.078;21.014;2023-11-21T05:17:43;163309.63;;;-1.68;100.00
45255;BME280;30989;52.078;21.014;2023-11-21T05:20:13;163297.66;;;-1.73;100.00
45255;BME280;30989;52.078;21.014;2023-11-21T05:22:39;163312.28;;;-1.67;100.00
45255;BME280;30989;52.078;21.014;2023-11-21T05:25:05;163300.31;;;-1.72;100.00
45255;BME280;30989;52.078;21.014;2023-11-21T05:27:33;163271.09;;;-1.83;100.00
45255;BME280;30989;52.078;21.014;2023-11-21T05:30:00;163275.09;;;-1.81;100.00
45255;BME280;30989;52.078;21.014;2023-11-21T05:32:25;163260.47;;;-1.87;100.00
45255;BME280;30989;52.078;21.014;2023-11-21T05:34:52;163249.88;;;-1.91;100.00
45255;BME280;30989;52.078;21.014;2023-11-21T05:37:17;163257.81;;;-1.88;100.00
45255;BME280;30989;52.078;21.014;2023-11-21T05:39:43;163279.06;;;-1.80;100.00
45255;BME280;30989;52.078;21.014;2023-11-21T05:42:08;163265.78;;;-1.85;100.00
45255;BME280;30989;52.078;21.014;2023-11-21T05:44:36;163247.22;;;-1.92;100.00
45255;BME280;30989;52.078;21.014;2023-11-21T05:47:02;163255.19;;;-1.89;100.00
45255;BME280;30989;52.078;21.014;2023-11-21T05:49:29;163265.78;;;-1.85;100.00
45255;BME280;30989;52.078;21.014;2023-11-21T05:51:56;163279.06;;;-1.80;100.00
45255;BME280;30989;52.078;21.014;2023-11-21T05:54:21;163272.44;;;-1.82;100.00
45255;BME280;30989;52.078;21.014;2023-11-21T05:56:49;163256.50;;;-1.88;100.00
45255;BME280;30989;52.078;21.014;2023-11-21T05:59:15;163257.81;;;-1.88;100.00
45255;BME280;30989;52.078;21.014;2023-11-21T06:01:40;163256.50;;;-1.88;100.00
45255;BME280;30989;52.078;21.014;2023-11-21T06:04:06;163263.13;;;-1.86;100.00
45255;BME280;30989;52.078;21.014;2023-11-21T06:06:33;163260.47;;;-1.87;100.00
45255;BME280;30989;52.078;21.014;2023-11-21T06:08:59;163257.81;;;-1.88;100.00
45255;BME280;30989;52.078;21.014;2023-11-21T06:11:24;163255.19;;;-1.89;100.00
45255;BME280;30989;52.078;21.014;2023-11-21T06:13:50;163260.47;;;-1.87;100.00
45255;BME280;30989;52.078;21.014;2023-11-21T06:16:15;163245.88;;;-1.92;100.00
45255;BME280;30989;52.078;21.014;2023-11-21T06:18:45;163251.19;;;-1.90;100.00
45255;BME280;30989;52.078;21.014;2023-11-21T06:21:11;163255.19;;;-1.89;100.00
45255;BME280;30989;52.078;21.014;2023-11-21T06:23:37;163256.50;;;-1.88;100.00
45255;BME280;30989;52.078;21.014;2023-11-21T06:26:02;163247.22;;;-1.92;100.00
45255;BME280;30989;52.078;21.014;2023-11-21T06:28:30;163260.47;;;-1.87;100.00
45255;BME280;30989;52.078;21.014;2023-11-21T06:30:56;163267.13;;;-1.84;100.00
45255;BME280;30989;52.078;21.014;2023-11-21T06:33:23;163260.47;;;-1.87;100.00
45255;BME280;30989;52.078;21.014;2023-11-21T06:35:50;163259.16;;;-1.87;100.00
45255;BME280;30989;52.078;21.014;2023-11-21T06:38:16;163236.59;;;-1.96;100.00
45255;BME280;30989;52.078;21.014;2023-11-21T06:40:41;163244.56;;;-1.93;100.00
45255;BME280;30989;52.078;21.014;2023-11-21T06:43:07;163285.72;;;-1.77;100.00
45255;BME280;30989;52.078;21.014;2023-11-21T06:45:33;163245.88;;;-1.92;100.00
45255;BME280;30989;52.078;21.014;2023-11-21T06:47:59;163281.72;;;-1.79;100.00
45255;BME280;30989;52.078;21.014;2023-11-21T06:50:25;163273.75;;;-1.82;100.00
45255;BME280;30989;52.078;21.014;2023-11-21T06:52:51;163252.53;;;-1.90;100.00
45255;BME280;30989;52.078;21.014;2023-11-21T06:55:16;163273.75;;;-1.82;100.00
45255;BME280;30989;52.078;21.014;2023-11-21T06:57:42;163281.72;;;-1.79;100.00
45255;BME280;30989;52.078;21.014;2023-11-21T07:00:08;163283.06;;;-1.78;100.00
45255;BME280;30989;52.078;21.014;2023-11-21T07:02:34;163280.41;;;-1.79;100.00
45255;BME280;30989;52.078;21.014;2023-11-21T07:05:00;163281.72;;;-1.79;100.00
45255;BME280;30989;52.078;21.014;2023-11-21T07:07:27;163269.78;;;-1.83;100.00
45255;BME280;30989;52.078;21.014;2023-11-21T07:09:53;163281.72;;;-1.79;100.00
45255;BME280;30989;52.078;21.014;2023-11-21T07:12:18;163263.13;;;-1.86;100.00
45255;BME280;30989;52.078;21.014;2023-11-21T07:14:44;163289.69;;;-1.76;100.00
45255;BME280;30989;52.078;21.014;2023-11-21T07:17:13;163295.00;;;-1.74;100.00
45255;BME280;30989;52.078;21.014;2023-11-21T07:19:39;163289.69;;;-1.76;100.00
45255;BME280;30989;52.078;21.014;2023-11-21T07:22:04;163277.75;;;-1.80;100.00
45255;BME280;30989;52.078;21.014;2023-11-21T07:24:31;163281.72;;;-1.79;100.00
45255;BME280;30989;52.078;21.014;2023-11-21T07:26:57;163289.69;;;-1.76;100.00
45255;BME280;30989;52.078;21.014;2023-11-21T07:29:24;163283.06;;;-1.78;100.00
45255;BME280;30989;52.078;21.014;2023-11-21T07:31:52;163313.59;;;-1.67;100.00
45255;BME280;30989;52.078;21.014;2023-11-21T07:34:19;163305.63;;;-1.70;100.00
45255;BME280;30989;52.078;21.014;2023-11-21T07:36:45;163312.28;;;-1.67;100.00
45255;BME280;30989;52.078;21.014;2023-11-21T07:39:10;163305.63;;;-1.70;100.00
45255;BME280;30989;52.078;21.014;2023-11-21T07:41:36;163287.03;;;-1.77;100.00
45255;BME280;30989;52.078;21.014;2023-11-21T07:44:03;163264.47;;;-1.85;100.00
45255;BME280;30989;52.078;21.014;2023-11-21T07:46:32;163279.06;;;-1.80;100.00
45255;BME280;30989;52.078;21.014;2023-11-21T07:48:57;163292.34;;;-1.75;100.00
45255;BME280;30989;52.078;21.014;2023-11-21T07:51:23;163291.03;;;-1.75;100.00
45255;BME280;30989;52.078;21.014;2023-11-21T07:53:48;163289.69;;;-1.76;100.00
45255;BME280;30989;52.078;21.014;2023-11-21T07:56:14;163301.66;;;-1.71;100.00
45255;BME280;30989;52.078;21.014;2023-11-21T07:58:40;163305.63;;;-1.70;100.00
45255;BME280;30989;52.078;21.014;2023-11-21T08:01:07;163297.66;;;-1.73;100.00
45255;BME280;30989;52.078;21.014;2023-11-21T08:03:33;163297.66;;;-1.73;100.00
45255;BME280;30989;52.078;21.014;2023-11-21T08:05:59;163289.69;;;-1.76;100.00
45255;BME280;30989;52.078;21.014;2023-11-21T08:08:25;163281.72;;;-1.79;100.00
45255;BME280;30989;52.078;21.014;2023-11-21T08:10:51;163283.06;;;-1.78;100.00
45255;BME280;30989;52.078;21.014;2023-11-21T08:13:23;163295.00;;;-1.74;100.00
45255;BME280;30989;52.078;21.014;2023-11-21T08:15:49;163295.00;;;-1.74;100.00
45255;BME280;30989;52.078;21.014;2023-11-21T08:18:14;163279.06;;;-1.80;100.00
45255;BME280;30989;52.078;21.014;2023-11-21T08:20:40;163289.69;;;-1.76;100.00
45255;BME280;30989;52.078;21.014;2023-11-21T08:23:06;163287.03;;;-1.77;100.00
45255;BME280;30989;52.078;21.014;2023-11-21T08:25:34;163308.28;;;-1.69;100.00
45255;BME280;30989;52.078;21.014;2023-11-21T08:28:00;163281.72;;;-1.79;100.00
45255;BME280;30989;52.078;21.014;2023-11-21T08:30:27;163275.09;;;-1.81;100.00
45255;BME280;30989;52.078;21.014;2023-11-21T08:32:55;163302.97;;;-1.71;100.00
45255;BME280;30989;52.078;21.014;2023-11-21T08:35:26;163287.03;;;-1.77;100.00
45255;BME280;30989;52.078;21.014;2023-11-21T08:37:52;163276.41;;;-1.81;100.00
45255;BME280;30989;52.078;21.014;2023-11-21T08:40:21;163304.31;;;-1.70;100.00
45255;BME280;30989;52.078;21.014;2023-11-21T08:42:47;163257.81;;;-1.88;100.00
45255;BME280;30989;52.078;21.014;2023-11-21T08:45:16;163243.22;;;-1.93;100.00
45255;BME280;30989;52.078;21.014;2023-11-21T08:47:43;163300.31;;;-1.72;100.00
45255;BME280;30989;52.078;21.014;2023-11-21T08:50:09;163291.03;;;-1.75;100.00
45255;BME280;30989;52.078;21.014;2023-11-21T08:52:35;163302.97;;;-1.71;100.00
45255;BME280;30989;52.078;21.014;2023-11-21T08:55:02;163310.94;;;-1.68;100.00
45255;BME280;30989;52.078;21.014;2023-11-21T08:57:36;163314.94;;;-1.66;100.00
45255;BME280;30989;52.078;21.014;2023-11-21T09:00:03;163301.66;;;-1.71;100.00
45255;BME280;30989;52.078;21.014;2023-11-21T09:02:33;163322.91;;;-1.63;100.00
45255;BME280;30989;52.078;21.014;2023-11-21T09:04:59;163309.63;;;-1.68;100.00
45255;BME280;30989;52.078;21.014;2023-11-21T09:07:29;163314.94;;;-1.66;100.00
45255;BME280;30989;52.078;21.014;2023-11-21T09:09:54;163316.25;;;-1.66;100.00
45255;BME280;30989;52.078;21.014;2023-11-21T09:12:20;163318.91;;;-1.65;100.00
45255;BME280;30989;52.078;21.014;2023-11-21T09:14:46;163321.56;;;-1.64;100.00
45255;BME280;30989;52.078;21.014;2023-11-21T09:17:12;163324.22;;;-1.63;100.00
45255;BME280;30989;52.078;21.014;2023-11-21T09:19:38;163289.69;;;-1.76;100.00
45255;BME280;30989;52.078;21.014;2023-11-21T09:22:03;163333.53;;;-1.59;100.00
45255;BME280;30989;52.078;21.014;2023-11-21T09:24:31;163334.84;;;-1.58;100.00
45255;BME280;30989;52.078;21.014;2023-11-21T09:26:57;163341.50;;;-1.56;100.00
45255;BME280;30989;52.078;21.014;2023-11-21T09:29:22;163353.44;;;-1.51;100.00
45255;BME280;30989;52.078;21.014;2023-11-21T09:31:48;163362.75;;;-1.48;100.00
45255;BME280;30989;52.078;21.014;2023-11-21T09:34:16;163374.69;;;-1.43;100.00
45255;BME280;30989;52.078;21.014;2023-11-21T09:36:45;163360.09;;;-1.49;100.00
45255;BME280;30989;52.078;21.014;2023-11-21T09:39:10;163374.69;;;-1.43;100.00
45255;BME280;30989;52.078;21.014;2023-11-21T09:41:59;163357.44;;;-1.50;100.00
45255;BME280;30989;52.078;21.014;2023-11-21T09:44:45;163352.13;;;-1.52;100.00
45255;BME280;30989;52.078;21.014;2023-11-21T09:47:14;163350.78;;;-1.52;100.00
45255;BME280;30989;52.078;21.014;2023-11-21T09:49:47;163321.56;;;-1.64;100.00
45255;BME280;30989;52.078;21.014;2023-11-21T09:52:38;163329.53;;;-1.60;100.00
45255;BME280;30989;52.078;21.014;2023-11-21T09:55:07;163326.88;;;-1.62;100.00
45255;BME280;30989;52.078;21.014;2023-11-21T09:57:33;163320.25;;;-1.64;100.00
45255;BME280;30989;52.078;21.014;2023-11-21T10:00:02;163334.84;;;-1.58;100.00
45255;BME280;30989;52.078;21.014;2023-11-21T10:02:32;163358.75;;;-1.49;100.00
45255;BME280;30989;52.078;21.014;2023-11-21T10:05:02;163361.41;;;-1.48;100.00
45255;BME280;30989;52.078;21.014;2023-11-21T10:07:28;163401.25;;;-1.33;100.00
45255;BME280;30989;52.078;21.014;2023-11-21T10:09:55;163417.19;;;-1.27;100.00
45255;BME280;30989;52.078;21.014;2023-11-21T10:12:23;163434.47;;;-1.20;100.00
45255;BME280;30989;52.078;21.014;2023-11-21T10:14:49;163438.44;;;-1.19;100.00
45255;BME280;30989;52.078;21.014;2023-11-21T10:17:18;163434.47;;;-1.20;100.00
45255;BME280;30989;52.078;21.014;2023-11-21T10:19:46;163461.03;;;-1.10;100.00
45255;BME280;30989;52.078;21.014;2023-11-21T10:22:14;163496.91;;;-0.97;100.00
45255;BME280;30989;52.078;21.014;2023-11-21T10:24:40;163492.91;;;-0.98;100.00
45255;BME280;30989;52.078;21.014;2023-11-21T10:27:05;163522.16;;;-0.87;100.00
45255;BME280;30989;52.078;21.014;2023-11-21T10:29:31;163542.09;;;-0.79;100.00
45255;BME280;30989;52.078;21.014;2023-11-21T10:32:02;163559.38;;;-0.73;100.00
45255;BME280;30989;52.078;21.014;2023-11-21T10:34:27;163548.72;;;-0.77;100.00
45255;BME280;30989;52.078;21.014;2023-11-21T10:36:53;163568.66;;;-0.69;100.00
45255;BME280;30989;52.078;21.014;2023-11-21T10:39:21;163566.00;;;-0.70;100.00
45255;BME280;30989;52.078;21.014;2023-11-21T10:41:49;163555.38;;;-0.74;100.00
45255;BME280;30989;52.078;21.014;2023-11-21T10:44:21;163579.28;;;-0.65;100.00
45255;BME280;30989;52.078;21.014;2023-11-21T10:46:53;163579.28;;;-0.65;100.00
45255;BME280;30989;52.078;21.014;2023-11-21T10:49:21;163579.28;;;-0.65;100.00
45255;BME280;30989;52.078;21.014;2023-11-21T10:51:50;163571.31;;;-0.68;100.00
45255;BME280;30989;52.078;21.014;2023-11-21T10:54:21;163567.34;;;-0.70;100.00
45255;BME280;30989;52.078;21.014;2023-11-21T10:56:53;163542.09;;;-0.79;100.00
45255;BME280;30989;52.078;21.014;2023-11-21T10:59:22;163579.28;;;-0.65;100.00
45255;BME280;30989;52.078;21.014;2023-11-21T11:01:50;163536.78;;;-0.81;100.00
45255;BME280;30989;52.078;21.014;2023-11-21T11:04:19;163531.47;;;-0.83;100.00
45255;BME280;30989;52.078;21.014;2023-11-21T11:06:51;163548.72;;;-0.77;100.00
45255;BME280;30989;52.078;21.014;2023-11-21T11:09:17;163522.16;;;-0.87;100.00
45255;BME280;30989;52.078;21.014;2023-11-21T11:11:43;163526.16;;;-0.85;100.00
45255;BME280;30989;52.078;21.014;2023-11-21T11:14:13;163508.88;;;-0.92;100.00
45255;BME280;30989;52.078;21.014;2023-11-21T11:16:40;163494.25;;;-0.98;100.00
45255;BME280;30989;52.078;21.014;2023-11-21T11:19:09;163496.91;;;-0.97;100.00
45255;BME280;30989;52.078;21.014;2023-11-21T11:22:07;163495.56;;;-0.97;100.00
45255;BME280;30989;52.078;21.014;2023-11-21T11:27:37;163496.91;;;-0.97;100.00
45255;BME280;30989;52.078;21.014;2023-11-21T11:38:23;163502.22;;;-0.94;100.00
45255;BME280;30989;52.078;21.014;2023-11-21T11:40:52;163504.88;;;-0.93;100.00
45255;BME280;30989;52.078;21.014;2023-11-21T11:43:26;163487.59;;;-1.00;100.00
45255;BME280;30989;52.078;21.014;2023-11-21T11:45:55;163465.03;;;-1.09;100.00
45255;BME280;30989;52.078;21.014;2023-11-21T11:48:22;163471.66;;;-1.06;100.00
45255;BME280;30989;52.078;21.014;2023-11-21T11:51:05;163486.28;;;-1.01;100.00
45255;BME280;30989;52.078;21.014;2023-11-21T11:53:47;163488.94;;;-1.00;100.00
45255;BME280;30989;52.078;21.014;2023-11-21T11:56:33;163491.59;;;-0.99;100.00
45255;BME280;30989;52.078;21.014;2023-11-21T11:59:01;163496.91;;;-0.97;100.00
45255;BME280;30989;52.078;21.014;2023-11-21T12:01:28;163490.28;;;-0.99;100.00
45255;BME280;30989;52.078;21.014;2023-11-21T12:07:00;163467.69;;;-1.08;100.00
45255;BME280;30989;52.078;21.014;2023-11-21T12:09:28;163471.66;;;-1.06;100.00
45255;BME280;30989;52.078;21.014;2023-11-21T12:11:55;163469.00;;;-1.07;100.00
45255;BME280;30989;52.078;21.014;2023-11-21T12:14:22;163466.34;;;-1.08;100.00
45255;BME280;30989;52.078;21.014;2023-11-21T12:16:48;163462.38;;;-1.10;100.00
45255;BME280;30989;52.078;21.014;2023-11-21T12:19:14;163469.00;;;-1.07;100.00
45255;BME280;30989;52.078;21.014;2023-11-21T12:21:40;163466.34;;;-1.08;100.00
45255;BME280;30989;52.078;21.014;2023-11-21T12:24:07;163446.41;;;-1.16;100.00
45255;BME280;30989;52.078;21.014;2023-11-21T12:26:38;163451.75;;;-1.14;100.00
45255;BME280;30989;52.078;21.014;2023-11-21T12:29:04;163442.44;;;-1.17;100.00
45255;BME280;30989;52.078;21.014;2023-11-21T12:31:33;163445.09;;;-1.16;100.00
45255;BME280;30989;52.078;21.014;2023-11-21T12:34:00;163449.09;;;-1.15;100.00
45255;BME280;30989;52.078;21.014;2023-11-21T12:36:26;163445.09;;;-1.16;100.00
45255;BME280;30989;52.078;21.014;2023-11-21T12:38:52;163434.47;;;-1.20;100.00
45255;BME280;30989;52.078;21.014;2023-11-21T12:41:17;163442.44;;;-1.17;100.00
45255;BME280;30989;52.078;21.014;2023-11-21T12:43:43;163443.75;;;-1.17;100.00
45255;BME280;30989;52.078;21.014;2023-11-21T12:46:10;163431.81;;;-1.21;100.00